Time;durP1;ratioP1;P1;durP2;ratioP2;P2;SDS_P1;SDS_P2;PMS_P1;PMS_P2;Temp;Humidity;BMP_temperature;BMP_pressure;BME280_temperature;BME280_humidity;BME280_pressure;Samples;Min_cycle;Max_cycle;Signal;HPM_P1;HPM_P2
2023/03/31 08:05:40;;;;;;;28.30;14.33;;;;;;;-147.16;74.61;75533.78;6169382;23;20240;-78
2023/03/31 08:08:07;;;;;;;30.67;14.87;;;;;;;-147.16;75.32;75543.91;5022636;23;21131;-69
2023/03/31 08:10:34;;;;;;;27.93;15.00;;;;;;;-147.16;75.37;75533.78;5045009;23;20229;-69
2023/03/31 08:13:00;;;;;;;26.40;14.67;;;;;;;-147.16;73.27;75497.34;5034127;23;20217;-66
2023/03/31 08:15:28;;;;;;;26.90;14.37;;;;;;;-147.16;72.93;75460.94;5024836;23;20208;-68
2023/03/31 08:17:57;;;;;;;24.67;13.53;;;;;;;-147.16;70.78;75442.72;5048703;23;20211;-67
2023/03/31 08:20:24;;;;;;;27.70;14.70;;;;;;;-147.16;71.76;75458.91;5038492;23;20202;-69
2023/03/31 08:22:51;;;;;;;27.47;14.30;;;;;;;-147.16;72.67;75505.47;5040471;23;20202;-68
2023/03/31 08:25:19;;;;;;;23.80;13.33;;;;;;;-147.16;73.20;75521.66;5026231;23;20613;-68
2023/03/31 08:27:49;;;;;;;23.00;13.70;;;;;;;-147.16;74.13;75541.88;5034955;23;21376;-67
2023/03/31 08:30:17;;;;;;;24.63;13.87;;;;;;;-147.16;74.71;75545.94;5047801;23;20681;-71
2023/03/31 08:32:45;;;;;;;23.90;12.83;;;;;;;-147.16;75.56;75554.03;5065131;23;20393;-69
2023/03/31 08:35:11;;;;;;;23.23;13.53;;;;;;;-147.16;75.33;75541.88;5047371;23;20205;-68
2023/03/31 08:37:38;;;;;;;28.23;13.63;;;;;;;-147.16;74.60;75493.31;5031243;23;20218;-72
2023/03/31 08:40:08;;;;;;;22.07;13.37;;;;;;;-147.16;74.05;75469.03;5036950;23;20209;-67
2023/03/31 08:42:43;;;;;;;26.13;13.00;;;;;;;-147.16;72.24;75408.31;5033962;23;20210;-67
2023/03/31 08:45:21;;;;;;;22.90;12.60;;;;;;;-147.16;70.75;75377.94;5036681;23;23018;-65
2023/03/31 08:47:50;;;;;;;23.57;13.17;;;;;;;-147.16;70.03;75388.06;5030205;23;20220;-68
2023/03/31 08:50:25;;;;;;;25.07;11.33;;;;;;;-147.16;69.39;75367.84;5084018;23;21866;-73
2023/03/31 08:53:30;;;;;;;20.23;11.77;;;;;;;-147.16;69.15;75388.06;5040598;23;20297;-68
2023/03/31 08:55:57;;;;;;;30.37;12.30;;;;;;;-147.16;68.23;75331.41;5052473;23;21430;-67
2023/03/31 08:58:32;;;;;;;18.27;11.23;;;;;;;-147.16;66.02;75286.88;5078913;23;20294;-71
2023/03/31 09:01:12;;;;;;;18.43;10.50;;;;;;;-147.16;65.06;75264.63;5091504;23;20333;-68
2023/03/31 09:04:01;;;;;;;21.63;11.30;;;;;;;-147.16;65.60;75258.53;5045333;23;20213;-65
2023/03/31 09:06:37;;;;;;;23.57;10.50;;;;;;;-147.16;64.72;75212.00;5079893;23;21500;-67
2023/03/31 09:09:08;;;;;;;18.83;10.23;;;;;;;-147.16;64.83;75254.50;5052344;23;20259;-64
2023/03/31 09:11:38;;;;;;;20.33;10.80;;;;;;;-147.16;65.49;75270.69;5031114;23;20215;-69
2023/03/31 09:14:44;;;;;;;18.90;9.77;;;;;;;-147.16;66.11;75288.91;5045961;23;21703;-66
2023/03/31 09:17:25;;;;;;;18.33;9.40;;;;;;;-147.16;66.12;75274.72;5040887;23;20215;-68
2023/03/31 09:20:09;;;;;;;18.20;8.87;;;;;;;-147.16;66.02;75307.13;5038477;23;21123;-57
2023/03/31 09:22:41;;;;;;;16.33;8.87;;;;;;;-147.16;66.78;75290.94;5055857;23;20216;-66
2023/03/31 09:25:14;;;;;;;18.43;9.90;;;;;;;-147.16;66.55;75276.75;5083923;23;20208;-67
2023/03/31 09:27:42;;;;;;;18.33;9.00;;;;;;;-147.16;65.74;75250.44;5093602;23;20211;-66
2023/03/31 09:30:22;;;;;;;17.53;9.00;;;;;;;-147.16;64.87;75209.97;5079889;23;22113;-67
2023/03/31 09:32:52;;;;;;;11.03;7.67;;;;;;;-147.16;64.89;75226.16;5057665;23;20211;-66
2023/03/31 09:35:24;;;;;;;13.70;7.63;;;;;;;-147.16;63.94;75201.88;5063291;23;21744;-65
2023/03/31 09:37:52;;;;;;;18.73;7.53;;;;;;;-147.16;63.92;75209.97;5047941;23;20209;-66
2023/03/31 09:40:24;;;;;;;14.97;7.20;;;;;;;-147.16;64.59;75240.34;5028455;23;23621;-68
2023/03/31 09:43:05;;;;;;;17.73;7.10;;;;;;;-147.16;65.50;75252.47;5018929;23;20209;-65
2023/03/31 09:45:32;;;;;;;18.63;7.30;;;;;;;-147.16;65.29;75209.97;5039953;23;20204;-65
2023/03/31 09:48:05;;;;;;;13.33;6.63;;;;;;;-147.16;65.14;75252.47;5054983;23;20307;-67
2023/03/31 09:51:00;;;;;;;17.53;6.80;;;;;;;-147.16;65.57;75238.31;5025799;23;20209;-68
2023/03/31 09:53:52;;;;;;;16.87;6.27;;;;;;;-147.16;65.25;75246.41;5056865;23;20205;-66
2023/03/31 09:56:47;;;;;;;15.37;6.63;;;;;;;-147.16;65.67;75220.09;5054466;23;20208;-68
2023/03/31 09:59:31;;;;;;;15.67;7.13;;;;;;;-147.16;63.52;75183.66;5055855;23;20206;-67
2023/03/31 10:02:01;;;;;;;14.60;6.43;;;;;;;-147.16;62.11;75153.31;5054739;23;21267;-66
2023/03/31 10:04:31;;;;;;;18.97;6.90;;;;;;;-147.16;61.44;75149.25;5047770;23;20206;-68
2023/03/31 10:06:59;;;;;;;13.97;5.90;;;;;;;-147.16;61.45;75141.16;5057460;23;25563;-67
2023/03/31 10:09:29;;;;;;;12.93;5.47;;;;;;;-147.16;61.44;75120.94;5080499;23;20208;-65
2023/03/31 10:11:58;;;;;;;13.00;4.83;;;;;;;-147.16;60.31;75124.97;5061122;23;20619;-66
2023/03/31 10:14:32;;;;;;;14.07;5.10;;;;;;;-147.16;59.56;75096.66;5058696;23;20216;-65
2023/03/31 10:17:04;;;;;;;16.73;4.80;;;;;;;-147.16;58.75;75068.31;5076158;23;20220;-68
2023/03/31 10:19:36;;;;;;;11.23;4.33;;;;;;;-147.16;58.08;75062.25;5056171;23;20205;-67
2023/03/31 10:22:15;;;;;;;11.13;4.97;;;;;;;-147.16;58.74;75066.28;5083142;23;23451;-67
2023/03/31 10:24:44;;;;;;;10.70;4.70;;;;;;;-147.16;58.11;75078.44;5036064;23;20204;-66
2023/03/31 10:27:20;;;;;;;13.90;4.83;;;;;;;-147.16;58.73;75078.44;5039108;23;23083;-65
2023/03/31 10:29:46;;;;;;;18.33;5.90;;;;;;;-147.16;59.37;75058.19;5048694;23;20995;-66
2023/03/31 10:32:24;;;;;;;13.03;4.47;;;;;;;-147.16;58.66;75084.50;5076328;23;20204;-66
2023/03/31 10:34:51;;;;;;;12.73;4.53;;;;;;;-147.16;59.59;75098.66;5065851;23;20272;-67
2023/03/31 10:37:21;;;;;;;14.97;4.70;;;;;;;-147.16;58.62;75096.66;5053367;23;20217;-68
2023/03/31 10:39:56;;;;;;;12.87;4.53;;;;;;;-147.16;59.19;75082.47;5017737;23;20216;-67
2023/03/31 10:42:23;;;;;;;11.03;4.60;;;;;;;-147.16;60.25;75104.75;5064409;23;20620;-67
2023/03/31 10:45:29;;;;;;;12.03;4.40;;;;;;;-147.16;59.16;75080.47;5056982;23;22933;-66
2023/03/31 10:48:05;;;;;;;11.33;4.80;;;;;;;-147.16;59.25;75070.34;5072737;23;20205;-65
2023/03/31 10:50:34;;;;;;;11.77;4.83;;;;;;;-147.16;58.10;75039.97;5045844;23;20756;-67
2023/03/31 10:53:04;;;;;;;13.03;4.77;;;;;;;-147.16;58.54;75021.78;5038393;23;20323;-66
2023/03/31 10:55:35;;;;;;;15.07;5.43;;;;;;;-147.16;57.88;75017.72;5053610;23;20905;-65
2023/03/31 10:58:10;;;;;;;12.70;4.27;;;;;;;-147.16;57.82;75019.75;5081931;23;20232;-67
2023/03/31 11:00:50;;;;;;;11.43;3.90;;;;;;;-147.16;55.92;74989.38;5083387;23;20208;-66
2023/03/31 11:03:45;;;;;;;11.57;4.53;;;;;;;-147.16;56.61;75023.78;5091719;23;20993;-65
2023/03/31 11:06:30;;;;;;;13.27;4.30;;;;;;;-147.16;58.11;75060.22;5057056;23;22110;-66
2023/03/31 11:08:57;;;;;;;12.43;5.13;;;;;;;-147.16;58.19;75056.16;5095919;23;20215;-65
2023/03/31 11:11:51;;;;;;;12.20;4.30;;;;;;;-147.16;58.44;75066.28;5073638;23;25305;-66
2023/03/31 11:14:40;;;;;;;9.37;4.50;;;;;;;-147.16;58.39;75027.84;5038170;23;20478;-67
2023/03/31 11:17:18;;;;;;;12.33;5.10;;;;;;;-147.16;57.64;75027.84;5090838;23;20212;-65
2023/03/31 11:20:18;;;;;;;13.80;5.30;;;;;;;-147.16;58.12;75031.88;5074094;23;21005;-66
2023/03/31 11:22:59;;;;;;;12.83;4.50;;;;;;;-147.16;58.92;74979.28;5088055;23;20571;-66
2023/03/31 11:25:56;;;;;;;12.93;4.50;;;;;;;-147.16;57.18;74957.00;5047201;23;21628;-66
2023/03/31 11:28:23;;;;;;;11.53;4.20;;;;;;;-147.16;56.85;74975.22;5079962;23;20564;-67
2023/03/31 11:30:56;;;;;;;11.03;4.53;;;;;;;-147.16;56.71;74959.03;5067665;23;20292;-65
2023/03/31 11:33:44;;;;;;;11.93;4.60;;;;;;;-147.16;54.70;74902.38;5056586;23;20218;-66
2023/03/31 11:36:14;;;;;;;13.23;4.40;;;;;;;-147.16;53.74;74892.25;5049154;23;20212;-67
2023/03/31 11:38:56;;;;;;;14.37;4.87;;;;;;;-147.16;54.42;74916.53;5069399;23;21764;-66
2023/03/31 11:41:32;;;;;;;15.50;5.00;;;;;;;-147.16;55.85;74967.13;5028636;23;20214;-66
2023/03/31 11:44:05;;;;;;;14.10;4.63;;;;;;;-147.16;56.01;74959.03;5064807;23;23950;-66
2023/03/31 11:47:03;;;;;;;10.97;4.40;;;;;;;-147.16;55.88;74967.13;5045082;23;21135;-66
2023/03/31 11:49:37;;;;;;;10.73;4.07;;;;;;;-147.16;56.57;74971.19;5051020;23;20204;-65
2023/03/31 11:52:16;;;;;;;15.73;4.80;;;;;;;-147.16;55.75;74975.22;5047615;23;22892;-66
2023/03/31 11:54:51;;;;;;;12.63;4.70;;;;;;;-147.16;55.61;74965.09;5065146;23;21647;-67
2023/03/31 11:57:34;;;;;;;11.37;4.63;;;;;;;-147.16;55.74;74934.75;5055057;23;22698;-65
2023/03/31 12:00:06;;;;;;;8.83;3.97;;;;;;;-147.16;55.07;74948.91;5046108;23;20214;-67
2023/03/31 12:02:45;;;;;;;14.63;4.57;;;;;;;-147.16;56.00;74930.69;5062241;23;22051;-67
2023/03/31 12:05:12;;;;;;;11.13;4.40;;;;;;;-147.16;55.42;74932.72;5050854;23;20211;-66
2023/03/31 12:07:42;;;;;;;12.40;4.27;;;;;;;-147.16;55.44;74910.47;5037378;23;21168;-66
2023/03/31 12:10:29;;;;;;;11.50;3.97;;;;;;;-147.16;53.96;74890.22;5076871;23;20213;-69
2023/03/31 12:13:39;;;;;;;10.40;4.20;;;;;;;-147.16;53.08;74829.53;5094541;23;20220;-73
2023/03/31 12:16:21;;;;;;;10.43;3.90;;;;;;;-147.16;50.43;74791.06;5160583;23;26903;-67
2023/03/31 12:19:09;;;;;;;10.10;3.33;;;;;;;-147.16;51.04;74793.09;5063236;23;20488;-66
2023/03/31 12:21:38;;;;;;;11.40;3.97;;;;;;;-147.16;51.54;74845.72;5042062;23;20296;-65
2023/03/31 12:24:05;;;;;;;9.30;3.40;;;;;;;-147.16;52.50;74829.53;5076720;23;23492;-65
2023/03/31 12:26:51;;;;;;;15.33;3.80;;;;;;;-147.16;50.85;74809.28;5061664;23;21367;-66
2023/03/31 12:29:50;;;;;;;14.80;4.00;;;;;;;-147.16;51.40;74772.88;5054577;23;20849;-69
2023/03/31 12:32:26;;;;;;;9.53;2.80;;;;;;;-147.16;49.05;74772.88;5068197;23;22156;-69
2023/03/31 12:35:16;;;;;;;9.00;3.23;;;;;;;-147.16;50.10;74813.34;5051893;23;21493;-66
2023/03/31 12:38:04;;;;;;;10.17;3.10;;;;;;;-147.16;51.21;74829.53;5046930;23;23149;-68
2023/03/31 12:40:31;;;;;;;10.87;3.20;;;;;;;-147.16;51.10;74821.44;5087928;23;20204;-65
2023/03/31 12:43:05;;;;;;;13.77;3.13;;;;;;;-147.16;50.40;74780.97;5063474;23;20217;-66
2023/03/31 12:45:45;;;;;;;8.40;3.60;;;;;;;-147.16;48.52;74748.59;5060227;23;20275;-66
2023/03/31 12:48:27;;;;;;;13.33;3.73;;;;;;;-147.16;49.16;74754.66;5087264;23;20259;-65
2023/03/31 12:51:09;;;;;;;7.60;3.60;;;;;;;-147.16;49.34;74756.69;5063461;23;20421;-67
2023/03/31 12:53:47;;;;;;;11.63;4.10;;;;;;;-147.16;48.76;74724.31;5050632;23;20332;-68
2023/03/31 12:56:14;;;;;;;12.63;4.07;;;;;;;-147.16;49.24;74716.22;5085259;23;20255;-64
2023/03/31 12:58:42;;;;;;;9.60;3.27;;;;;;;-147.16;47.90;74720.25;5046126;23;20215;-65
2023/03/31 13:01:22;;;;;;;11.73;3.37;;;;;;;-147.16;47.92;74704.06;5070724;23;21751;-64
2023/03/31 13:04:21;;;;;;;11.20;3.70;;;;;;;-147.16;48.00;74732.41;5061953;23;20211;-65
2023/03/31 13:06:53;;;;;;;11.33;3.23;;;;;;;-147.16;49.35;74732.41;5043891;23;20218;-64
2023/03/31 13:09:32;;;;;;;15.10;3.80;;;;;;;-147.16;47.78;74740.50;5018861;23;25712;-64
2023/03/31 13:12:06;;;;;;;8.83;3.03;;;;;;;-147.16;47.99;74746.56;5002107;23;20220;-65
2023/03/31 13:14:37;;;;;;;11.80;3.50;;;;;;;-147.16;49.00;74793.09;5011900;23;21611;-66
2023/03/31 13:17:23;;;;;;;8.37;3.00;;;;;;;-147.16;50.12;74785.00;5010603;23;20334;-63
2023/03/31 13:19:51;;;;;;;10.30;3.20;;;;;;;-147.16;49.59;74734.41;5009026;23;20281;-65
2023/03/31 13:22:30;;;;;;;12.53;3.10;;;;;;;-147.16;49.06;74750.59;5019817;23;21465;-67
2023/03/31 13:25:32;;;;;;;10.33;3.10;;;;;;;-147.16;49.41;74768.81;5008810;23;20206;-67
2023/03/31 13:28:13;;;;;;;10.87;3.53;;;;;;;-147.16;49.03;74764.78;5032537;23;20349;-64
2023/03/31 13:30:40;;;;;;;8.63;2.90;;;;;;;-147.16;50.15;74795.13;5009404;23;20209;-65
2023/03/31 13:33:20;;;;;;;11.43;2.80;;;;;;;-147.16;50.22;74797.16;5019251;23;21350;-65
2023/03/31 13:35:53;;;;;;;14.00;4.10;;;;;;;-147.16;49.45;74760.72;5009710;23;20507;-67
2023/03/31 13:39:07;;;;;;;7.70;3.23;;;;;;;-147.16;49.91;74776.91;5032919;23;20217;-66
2023/03/31 13:41:55;;;;;;;8.80;3.37;;;;;;;-147.16;50.25;74776.91;5004069;23;21350;-66
2023/03/31 13:44:45;;;;;;;13.10;3.17;;;;;;;-147.16;49.17;74789.06;5022568;23;21593;-64
2023/03/31 13:47:30;;;;;;;7.77;3.07;;;;;;;-147.16;49.58;74797.16;5000413;23;20210;-67
2023/03/31 13:50:22;;;;;;;11.20;3.47;;;;;;;-147.16;51.80;74801.19;5013068;23;20208;-65
2023/03/31 13:53:30;;;;;;;12.00;3.23;;;;;;;-147.16;51.00;74795.13;5041373;23;20247;-65
2023/03/31 13:56:06;;;;;;;7.87;2.93;;;;;;;-147.16;51.30;74805.25;5044385;23;20225;-68
2023/03/31 13:58:43;;;;;;;7.60;2.93;;;;;;;-147.16;50.45;74760.72;5004946;23;20438;-65
2023/03/31 14:01:15;;;;;;;12.60;3.63;;;;;;;-147.16;49.68;74760.72;5042127;23;20210;-67
2023/03/31 14:04:04;;;;;;;8.40;2.83;;;;;;;-147.16;49.18;74776.91;5018849;23;20250;-63
2023/03/31 14:06:49;;;;;;;11.37;2.73;;;;;;;-147.16;49.17;74774.88;5007879;23;20346;-68
2023/03/31 14:09:24;;;;;;;9.03;2.63;;;;;;;-147.16;48.98;74744.53;5042598;23;20309;-65
2023/03/31 14:11:51;;;;;;;8.87;2.67;;;;;;;-147.16;48.21;74700.03;5076951;23;20210;-67
2023/03/31 14:14:18;;;;;;;9.63;2.47;;;;;;;-147.16;47.30;74687.88;5052186;23;21378;-66
2023/03/31 14:16:59;;;;;;;8.80;2.43;;;;;;;-147.16;47.03;74691.91;5074548;23;20217;-65
2023/03/31 14:19:31;;;;;;;9.23;2.30;;;;;;;-147.16;47.70;74730.38;5078222;23;20460;-65
2023/03/31 14:22:26;;;;;;;4.97;2.50;;;;;;;-147.16;48.58;74764.78;5061428;23;21871;-67
2023/03/31 14:25:29;;;;;;;11.67;3.00;;;;;;;-147.16;49.73;74793.09;5057248;23;21903;-69
2023/03/31 14:28:40;;;;;;;11.60;2.67;;;;;;;-147.16;49.65;74785.00;5060963;23;20280;-67
2023/03/31 14:31:26;;;;;;;9.47;3.07;;;;;;;-147.16;50.07;74805.25;5056633;23;21883;-67
2023/03/31 14:34:18;;;;;;;13.17;2.77;;;;;;;-147.16;50.09;74805.25;5051674;23;24387;-70
2023/03/31 14:36:56;;;;;;;10.27;2.80;;;;;;;-147.16;50.57;74805.25;5090269;23;20291;-66
2023/03/31 14:39:26;;;;;;;10.80;3.00;;;;;;;-147.16;50.92;74787.03;5068280;23;20208;-66
2023/03/31 14:41:57;;;;;;;8.33;2.60;;;;;;;-147.16;50.72;74770.84;5074803;23;20317;-67
2023/03/31 14:44:24;;;;;;;16.13;3.00;;;;;;;-147.16;50.85;74776.91;5051982;23;20218;-68
2023/03/31 14:46:50;;;;;;;9.37;2.87;;;;;;;-147.16;51.50;74785.00;5053258;23;21818;-67
2023/03/31 14:49:22;;;;;;;9.57;2.77;;;;;;;-147.16;51.01;74760.72;5066494;23;22085;-70
2023/03/31 14:51:52;;;;;;;9.77;2.40;;;;;;;-147.16;51.10;74758.69;5060867;23;20338;-68
2023/03/31 14:54:20;;;;;;;11.60;2.80;;;;;;;-147.16;51.24;74754.66;5052150;23;20215;-67
2023/03/31 14:56:53;;;;;;;9.77;3.23;;;;;;;-147.16;51.48;74770.84;5052805;23;20205;-68
2023/03/31 14:59:26;;;;;;;10.40;2.90;;;;;;;-147.16;51.74;74776.91;5045193;23;20223;-67
2023/03/31 15:01:53;;;;;;;8.90;2.93;;;;;;;-147.16;51.63;74772.88;5035375;23;22600;-68
2023/03/31 15:04:22;;;;;;;7.30;2.73;;;;;;;-147.16;51.59;74768.81;5061913;23;20204;-70
2023/03/31 15:07:05;;;;;;;9.13;2.70;;;;;;;-147.16;51.45;74789.06;5066559;23;20208;-68
2023/03/31 15:09:34;;;;;;;7.97;2.83;;;;;;;-147.16;51.16;74756.69;5026166;23;20205;-68
2023/03/31 15:12:07;;;;;;;9.13;3.40;;;;;;;-147.16;50.66;74740.50;5030444;23;20209;-68
2023/03/31 15:14:43;;;;;;;6.47;3.17;;;;;;;-147.16;50.90;74740.50;4999658;23;20627;-70
2023/03/31 15:17:22;;;;;;;10.13;2.90;;;;;;;-147.16;50.02;74732.41;5061339;23;22137;-69
2023/03/31 15:19:56;;;;;;;11.67;2.77;;;;;;;-147.16;49.63;74734.41;5028310;23;21771;-68
2023/03/31 15:22:26;;;;;;;12.83;2.73;;;;;;;-147.16;50.15;74738.47;5034451;23;20213;-67
2023/03/31 15:24:53;;;;;;;7.23;2.70;;;;;;;-147.16;50.27;74742.50;5030331;23;20614;-69
2023/03/31 15:27:29;;;;;;;9.87;2.73;;;;;;;-147.16;51.48;74785.00;5069228;23;20208;-67
2023/03/31 15:30:07;;;;;;;7.97;3.00;;;;;;;-147.16;54.47;74872.03;5047050;23;21436;-64
2023/03/31 15:32:35;;;;;;;7.57;2.90;;;;;;;-147.16;58.35;74936.78;5037716;23;20213;-66
2023/03/31 15:35:04;;;;;;;5.47;2.90;;;;;;;-147.16;60.99;74963.09;5005388;23;20209;-66
2023/03/31 15:37:49;;;;;;;8.40;3.27;;;;;;;-147.16;63.19;75015.69;5026733;23;20248;-63
2023/03/31 15:40:35;;;;;;;7.30;3.70;;;;;;;-147.16;64.63;75035.94;5029696;23;21171;-67
2023/03/31 15:43:12;;;;;;;5.90;3.67;;;;;;;-147.16;65.71;75044.03;5052093;23;20341;-65
2023/03/31 15:45:55;;;;;;;4.97;2.90;;;;;;;-147.16;65.77;75072.34;5041405;23;20260;-65
2023/03/31 15:48:24;;;;;;;4.03;3.00;;;;;;;-147.16;66.46;75084.50;5017148;23;20351;-62
2023/03/31 15:50:52;;;;;;;4.73;2.63;;;;;;;-147.16;66.46;75094.63;5033968;23;20211;-68
2023/03/31 15:53:26;;;;;;;4.07;2.63;;;;;;;-147.16;67.42;75120.94;5050436;23;20338;-68
2023/03/31 15:55:55;;;;;;;4.57;2.20;;;;;;;-147.16;66.41;75104.75;5056240;23;20246;-64
2023/03/31 15:58:25;;;;;;;4.97;2.40;;;;;;;-147.16;66.84;75102.72;5037635;23;20740;-66
2023/03/31 16:00:53;;;;;;;8.03;2.40;;;;;;;-147.16;66.18;75092.59;5016364;23;20199;-67
2023/03/31 16:03:27;;;;;;;5.33;2.50;;;;;;;-147.16;65.54;75092.59;5040358;23;20216;-69
2023/03/31 16:05:56;;;;;;;6.30;3.23;;;;;;;-147.16;65.67;75096.66;5046802;23;20207;-69
2023/03/31 16:08:36;;;;;;;6.00;2.20;;;;;;;-147.16;65.32;75088.56;5057595;23;20208;-68
2023/03/31 16:11:13;;;;;;;3.27;2.00;;;;;;;-147.16;64.91;75090.56;5068890;23;20240;-68
2023/03/31 16:13:42;;;;;;;3.47;1.90;;;;;;;-147.16;64.13;75080.47;5043130;23;21921;-64
2023/03/31 16:16:14;;;;;;;4.03;2.00;;;;;;;-147.16;64.06;75092.59;5049522;23;20256;-67
2023/03/31 16:18:44;;;;;;;3.60;2.13;;;;;;;-147.16;63.90;75108.78;5081489;23;20208;-68
2023/03/31 16:21:13;;;;;;;4.60;2.20;;;;;;;-147.16;64.19;75114.84;5061265;23;20318;-66
2023/03/31 16:23:40;;;;;;;4.23;2.00;;;;;;;-147.16;64.01;75118.91;5083458;23;20200;-69
2023/03/31 16:26:07;;;;;;;3.13;2.20;;;;;;;-147.16;63.74;75110.81;5089628;23;20209;-67
2023/03/31 16:28:36;;;;;;;3.57;2.13;;;;;;;-147.16;63.80;75108.78;5066739;23;20208;-68
2023/03/31 16:31:04;;;;;;;3.73;2.07;;;;;;;-147.16;63.97;75114.84;5067829;23;22905;-64
2023/03/31 16:33:52;;;;;;;6.57;2.30;;;;;;;-147.16;64.86;75122.94;5053716;23;20227;-65
2023/03/31 16:36:18;;;;;;;4.00;2.23;;;;;;;-147.16;65.03;75137.13;5095702;23;20200;-67
2023/03/31 16:38:45;;;;;;;4.27;2.40;;;;;;;-147.16;65.44;75131.03;5090249;23;20863;-65
2023/03/31 16:41:14;;;;;;;4.67;2.00;;;;;;;-147.16;65.84;75145.22;5070741;23;21403;-66
2023/03/31 16:43:43;;;;;;;4.23;2.33;;;;;;;-147.16;66.43;75137.13;5065556;23;20274;-66
2023/03/31 16:46:10;;;;;;;6.73;2.70;;;;;;;-147.16;66.13;75131.03;5075286;23;20204;-66
2023/03/31 16:48:37;;;;;;;5.07;2.20;;;;;;;-147.16;66.03;75139.16;5052956;23;21843;-65
2023/03/31 16:51:04;;;;;;;9.07;2.30;;;;;;;-147.16;66.28;75141.16;5078909;23;22688;-65
2023/03/31 16:53:33;;;;;;;4.73;2.23;;;;;;;-147.16;67.01;75145.22;5060857;23;20246;-64
2023/03/31 16:56:00;;;;;;;9.53;2.40;;;;;;;-147.16;66.54;75141.16;5077174;23;21977;-64
2023/03/31 16:58:27;;;;;;;8.57;2.10;;;;;;;-147.16;66.50;75135.09;5082190;23;20207;-66
2023/03/31 17:00:55;;;;;;;4.53;2.47;;;;;;;-147.16;65.90;75135.09;5081946;23;20280;-65
2023/03/31 17:03:22;;;;;;;4.20;1.87;;;;;;;-147.16;66.13;75137.13;5091155;23;20523;-65
2023/03/31 17:05:51;;;;;;;4.17;2.07;;;;;;;-147.16;65.78;75135.09;5087729;23;21007;-65
2023/03/31 17:08:20;;;;;;;3.17;1.70;;;;;;;-147.16;65.79;75120.94;5116711;23;21393;-65
2023/03/31 17:11:01;;;;;;;7.83;1.87;;;;;;;-147.16;65.83;75118.91;5075342;23;20216;-68
2023/03/31 17:13:31;;;;;;;4.60;1.80;;;;;;;-147.16;65.01;75116.88;5028175;23;20373;-65
2023/03/31 17:15:58;;;;;;;4.57;2.00;;;;;;;-147.16;65.27;75120.94;5057996;23;20205;-67
2023/03/31 17:18:44;;;;;;;3.07;1.70;;;;;;;-147.16;65.14;75114.84;5036980;23;20306;-66
2023/03/31 17:21:13;;;;;;;7.23;2.47;;;;;;;-147.16;64.53;75112.84;5057321;23;21212;-67
2023/03/31 17:23:40;;;;;;;9.77;2.60;;;;;;;-147.16;64.90;75120.94;5067040;23;20211;-66
2023/03/31 17:26:17;;;;;;;13.53;3.33;;;;;;;-147.16;64.83;75110.81;5029173;23;20209;-67
2023/03/31 17:28:44;;;;;;;6.33;2.33;;;;;;;-147.16;64.48;75129.03;5036899;23;20613;-68
2023/03/31 17:31:12;;;;;;;9.37;3.30;;;;;;;-147.16;64.69;75145.22;5027460;23;20721;-64
2023/03/31 17:33:39;;;;;;;10.00;3.00;;;;;;;-147.16;64.94;75141.16;5027836;23;20212;-67
2023/03/31 17:36:06;;;;;;;8.13;3.40;;;;;;;-147.16;66.40;75149.25;5017956;23;20409;-68
2023/03/31 17:38:33;;;;;;;9.03;4.20;;;;;;;-147.16;67.91;75163.44;5032926;23;20213;-66
2023/03/31 17:41:04;;;;;;;11.57;5.17;;;;;;;-147.16;68.97;75169.50;5030683;23;26293;-67
2023/03/31 17:43:32;;;;;;;11.67;5.20;;;;;;;-147.16;70.02;75171.53;5032085;23;20221;-65
2023/03/31 17:46:06;;;;;;;10.53;5.27;;;;;;;-147.16;70.65;75165.44;5044916;23;20283;-67
2023/03/31 17:48:37;;;;;;;11.63;5.53;;;;;;;-147.16;71.35;75185.69;5041157;23;20199;-67
2023/03/31 17:51:09;;;;;;;12.23;6.40;;;;;;;-147.16;72.01;75189.75;5065127;23;21344;-64
2023/03/31 17:53:35;;;;;;;10.57;6.07;;;;;;;-147.16;72.75;75189.75;5063060;23;20199;-67
2023/03/31 17:56:03;;;;;;;16.30;7.37;;;;;;;-147.16;74.44;75212.00;5067019;23;20268;-63
2023/03/31 17:58:30;;;;;;;10.70;6.07;;;;;;;-147.16;76.25;75234.25;5034000;23;20280;-64
2023/03/31 18:00:57;;;;;;;12.67;6.57;;;;;;;-147.16;77.07;75236.28;5030558;23;20205;-67
2023/03/31 18:03:26;;;;;;;12.43;6.93;;;;;;;-147.16;77.77;75234.25;5061448;23;20214;-66
2023/03/31 18:05:53;;;;;;;14.53;6.77;;;;;;;-147.16;78.27;75230.22;5039635;23;20209;-65
2023/03/31 18:08:20;;;;;;;15.30;6.97;;;;;;;-147.16;78.96;75248.44;5058415;23;23066;-65
2023/03/31 18:10:46;;;;;;;13.70;5.53;;;;;;;-147.16;79.04;75244.38;5081126;23;20219;-65
2023/03/31 18:13:13;;;;;;;15.70;5.47;;;;;;;-147.16;79.21;75248.44;5062830;23;20204;-67
2023/03/31 18:15:45;;;;;;;10.53;5.53;;;;;;;-147.16;79.88;75266.63;5039235;23;20200;-68
2023/03/31 18:18:12;;;;;;;14.57;5.77;;;;;;;-147.16;80.62;75270.69;5046972;23;20205;-70
2023/03/31 18:20:38;;;;;;;18.70;7.27;;;;;;;-147.16;80.86;75262.59;5046449;23;20213;-68
2023/03/31 18:23:05;;;;;;;21.50;7.63;;;;;;;-147.16;81.24;75266.63;5036280;23;20667;-65
2023/03/31 18:25:32;;;;;;;29.90;8.50;;;;;;;-147.16;81.71;75268.66;5054309;23;21202;-68
2023/03/31 18:27:59;;;;;;;18.60;7.20;;;;;;;-147.16;82.16;75256.53;5040737;23;20208;-64
2023/03/31 18:30:26;;;;;;;22.83;6.47;;;;;;;-147.16;82.40;75270.69;5056696;23;20243;-67
2023/03/31 18:32:53;;;;;;;15.57;6.17;;;;;;;-147.16;81.86;75266.63;5049993;23;20325;-66
2023/03/31 18:35:22;;;;;;;29.23;11.70;;;;;;;-147.16;82.27;75266.63;5064516;23;20208;-66
2023/03/31 18:37:48;;;;;;;27.53;10.37;;;;;;;-147.16;82.82;75270.69;5048721;23;20213;-66
2023/03/31 18:40:16;;;;;;;12.57;5.97;;;;;;;-147.16;82.50;75256.53;5051248;23;20333;-69
2023/03/31 18:42:42;;;;;;;16.53;6.50;;;;;;;-147.16;82.67;75258.53;5062566;23;21658;-66
2023/03/31 18:45:09;;;;;;;11.87;6.20;;;;;;;-147.16;82.95;75266.63;5068748;23;20228;-67
2023/03/31 18:47:36;;;;;;;21.07;8.77;;;;;;;-147.16;83.57;75270.69;5043288;23;20205;-64
2023/03/31 18:50:03;;;;;;;21.37;8.50;;;;;;;-147.16;84.04;75266.63;5068474;23;20445;-65
2023/03/31 18:52:30;;;;;;;19.47;8.37;;;;;;;-147.16;83.90;75252.47;5071313;23;20212;-65
2023/03/31 18:54:57;;;;;;;17.00;7.53;;;;;;;-147.16;84.22;75260.56;5051171;23;20275;-66
2023/03/31 18:57:23;;;;;;;20.10;8.20;;;;;;;-147.16;84.34;75256.53;5075436;23;20209;-65
2023/03/31 18:59:50;;;;;;;18.57;8.47;;;;;;;-147.16;84.46;75264.63;5063029;23;22310;-65
2023/03/31 19:02:18;;;;;;;23.20;10.63;;;;;;;-147.16;85.00;75262.59;5088995;23;20974;-68
2023/03/31 19:04:45;;;;;;;21.63;9.47;;;;;;;-147.16;85.11;75254.50;5102226;23;20255;-64
2023/03/31 19:07:13;;;;;;;22.60;9.60;;;;;;;-147.16;85.04;75250.44;5077377;23;20209;-65
2023/03/31 19:09:40;;;;;;;23.60;10.50;;;;;;;-147.16;85.37;75244.38;5028535;23;20410;-68
2023/03/31 19:12:07;;;;;;;18.73;9.70;;;;;;;-147.16;85.55;75250.44;5080131;23;21737;-66
2023/03/31 19:14:36;;;;;;;22.17;9.37;;;;;;;-147.16;85.19;75244.38;5075245;23;21477;-69
2023/03/31 19:17:04;;;;;;;21.53;10.50;;;;;;;-147.16;85.29;75246.41;5074139;23;23041;-68
2023/03/31 19:19:30;;;;;;;21.50;10.00;;;;;;;-147.16;85.76;75242.34;5077031;23;20207;-67
2023/03/31 19:21:57;;;;;;;16.47;9.67;;;;;;;-147.16;85.56;75230.22;5090913;23;20204;-66
2023/03/31 19:24:24;;;;;;;26.83;11.00;;;;;;;-147.16;85.44;75240.34;5086739;23;20198;-68
2023/03/31 19:26:50;;;;;;;21.23;10.30;;;;;;;-147.16;85.32;75230.22;5071258;23;22371;-70
2023/03/31 19:29:17;;;;;;;27.83;8.90;;;;;;;-147.16;84.70;75222.13;5069967;23;20213;-66
2023/03/31 19:31:46;;;;;;;15.77;7.33;;;;;;;-147.16;84.54;75212.00;5054709;23;20204;-70
2023/03/31 19:34:15;;;;;;;22.00;8.43;;;;;;;-147.16;84.03;75205.94;5053636;23;20955;-72
2023/03/31 19:36:42;;;;;;;20.27;8.07;;;;;;;-147.16;83.84;75216.03;5065586;23;20208;-69
2023/03/31 19:39:10;;;;;;;17.73;8.53;;;;;;;-147.16;83.37;75205.94;5066404;23;20688;-64
2023/03/31 19:41:36;;;;;;;17.00;8.27;;;;;;;-147.16;83.05;75197.84;5054293;23;20263;-67
2023/03/31 19:44:03;;;;;;;19.70;8.67;;;;;;;-147.16;83.32;75199.84;5060781;23;20204;-65
2023/03/31 19:46:29;;;;;;;22.30;9.33;;;;;;;-147.16;83.72;75193.78;5032778;23;20299;-64
2023/03/31 19:48:56;;;;;;;20.40;10.20;;;;;;;-147.16;83.97;75197.84;5061846;23;20204;-68